sensor_id;sensor_type;location;lat;lon;timestamp;pressure;altitude;pressure_sealevel;temperature;humidity
60246;BME280;46107;53.356;-1.524;2023-04-22T00:02:23;98173.53;;;8.79;69.79
60246;BME280;46107;53.356;-1.524;2023-04-22T00:04:49;98172.20;;;8.26;71.46
60246;BME280;46107;53.356;-1.524;2023-04-22T00:07:17;98170.53;;;8.85;69.89
60246;BME280;46107;53.356;-1.524;2023-04-22T00:09:44;98169.78;;;7.84;72.64
60246;BME280;46107;53.356;-1.524;2023-04-22T00:12:12;98169.44;;;7.88;72.51
60246;BME280;46107;53.356;-1.524;2023-04-22T00:14:39;98164.71;;;7.89;71.61
60246;BME280;46107;53.356;-1.524;2023-04-22T00:17:07;98158.95;;;8.44;70.55
60246;BME280;46107;53.356;-1.524;2023-04-22T00:19:35;98157.81;;;8.21;71.46
60246;BME280;46107;53.356;-1.524;2023-04-22T00:22:02;98149.96;;;9.28;66.47
60246;BME280;46107;53.356;-1.524;2023-04-22T00:24:30;98144.33;;;9.16;67.46
60246;BME280;46107;53.356;-1.524;2023-04-22T00:26:58;98140.37;;;9.50;66.75
60246;BME280;46107;53.356;-1.524;2023-04-22T00:29:25;98136.47;;;8.91;67.98
60246;BME280;46107;53.356;-1.524;2023-04-22T00:31:55;98136.25;;;8.11;69.36
60246;BME280;46107;53.356;-1.524;2023-04-22T00:34:23;98130.94;;;8.29;70.82
60246;BME280;46107;53.356;-1.524;2023-04-22T00:36:50;98129.05;;;7.67;72.37
60246;BME280;46107;53.356;-1.524;2023-04-22T00:39:18;98119.69;;;8.97;68.72
60246;BME280;46107;53.356;-1.524;2023-04-22T00:41:46;98114.38;;;8.27;70.57
60246;BME280;46107;53.356;-1.524;2023-04-22T00:44:14;98109.28;;;8.76;70.10
60246;BME280;46107;53.356;-1.524;2023-04-22T00:46:42;98100.73;;;8.48;70.53
60246;BME280;46107;53.356;-1.524;2023-04-22T00:49:09;98092.68;;;8.09;71.97
60246;BME280;46107;53.356;-1.524;2023-04-22T00:51:36;98088.67;;;8.69;70.33
60246;BME280;46107;53.356;-1.524;2023-04-22T00:54:04;98084.80;;;9.04;69.46
60246;BME280;46107;53.356;-1.524;2023-04-22T00:56:33;98086.77;;;8.29;70.77
60246;BME280;46107;53.356;-1.524;2023-04-22T00:59:01;98080.30;;;8.66;69.90
60246;BME280;46107;53.356;-1.524;2023-04-22T01:01:29;98072.50;;;7.49;74.84
60246;BME280;46107;53.356;-1.524;2023-04-22T01:03:57;98070.16;;;7.32;76.33
60246;BME280;46107;53.356;-1.524;2023-04-22T01:06:25;98071.21;;;8.05;73.28
60246;BME280;46107;53.356;-1.524;2023-04-22T01:08:58;98066.95;;;7.55;73.91
60246;BME280;46107;53.356;-1.524;2023-04-22T01:11:26;98066.67;;;8.44;71.08
60246;BME280;46107;53.356;-1.524;2023-04-22T01:13:54;98061.85;;;8.15;71.85
60246;BME280;46107;53.356;-1.524;2023-04-22T01:16:22;98055.68;;;8.30;70.46
60246;BME280;46107;53.356;-1.524;2023-04-22T01:18:50;98049.09;;;7.87;73.46
60246;BME280;46107;53.356;-1.524;2023-04-22T01:21:18;98047.67;;;8.87;70.17
60246;BME280;46107;53.356;-1.524;2023-04-22T01:23:46;98040.16;;;9.08;70.31
60246;BME280;46107;53.356;-1.524;2023-04-22T01:26:14;98033.68;;;8.14;72.78
60246;BME280;46107;53.356;-1.524;2023-04-22T01:28:42;98025.62;;;7.96;72.07
60246;BME280;46107;53.356;-1.524;2023-04-22T01:31:11;98021.61;;;8.44;71.97
60246;BME280;46107;53.356;-1.524;2023-04-22T01:33:39;98019.85;;;8.73;70.93
60246;BME280;46107;53.356;-1.524;2023-04-22T01:36:06;98020.65;;;7.93;73.56
60246;BME280;46107;53.356;-1.524;2023-04-22T01:38:34;98020.10;;;7.91;73.86
60246;BME280;46107;53.356;-1.524;2023-04-22T01:41:02;98016.91;;;8.16;74.10
60246;BME280;46107;53.356;-1.524;2023-04-22T01:43:30;98011.08;;;8.55;73.05
60246;BME280;46107;53.356;-1.524;2023-04-22T01:46:00;98013.03;;;8.72;72.23
60246;BME280;46107;53.356;-1.524;2023-04-22T01:48:27;98008.51;;;9.26;69.19
60246;BME280;46107;53.356;-1.524;2023-04-22T01:50:55;98007.80;;;8.00;74.05
60246;BME280;46107;53.356;-1.524;2023-04-22T01:53:22;98007.86;;;8.26;73.16
60246;BME280;46107;53.356;-1.524;2023-04-22T01:55:49;98008.20;;;7.68;73.81
60246;BME280;46107;53.356;-1.524;2023-04-22T01:58:17;98009.53;;;8.02;73.93
60246;BME280;46107;53.356;-1.524;2023-04-22T02:00:45;98005.45;;;8.54;71.85
60246;BME280;46107;53.356;-1.524;2023-04-22T02:03:13;98001.06;;;9.01;70.33
60246;BME280;46107;53.356;-1.524;2023-04-22T02:05:40;97999.07;;;9.41;68.05
60246;BME280;46107;53.356;-1.524;2023-04-22T02:08:08;97996.29;;;9.11;68.44
60246;BME280;46107;53.356;-1.524;2023-04-22T02:10:35;98000.59;;;8.61;69.93
60246;BME280;46107;53.356;-1.524;2023-04-22T02:13:03;97994.66;;;9.41;68.78
60246;BME280;46107;53.356;-1.524;2023-04-22T02:15:30;97991.14;;;9.00;69.51
60246;BME280;46107;53.356;-1.524;2023-04-22T02:17:57;97989.42;;;9.84;67.36
60246;BME280;46107;53.356;-1.524;2023-04-22T02:20:25;97985.38;;;9.28;68.46
60246;BME280;46107;53.356;-1.524;2023-04-22T02:22:53;97983.56;;;9.81;66.06
60246;BME280;46107;53.356;-1.524;2023-04-22T02:25:22;97980.82;;;9.60;66.97
60246;BME280;46107;53.356;-1.524;2023-04-22T02:27:49;97977.66;;;9.97;64.80
60246;BME280;46107;53.356;-1.524;2023-04-22T02:30:17;97974.31;;;9.87;65.31
60246;BME280;46107;53.356;-1.524;2023-04-22T02:32:44;97973.29;;;9.55;65.69
60246;BME280;46107;53.356;-1.524;2023-04-22T02:35:11;97966.75;;;9.99;65.51
60246;BME280;46107;53.356;-1.524;2023-04-22T02:37:39;97960.39;;;9.62;66.01
60246;BME280;46107;53.356;-1.524;2023-04-22T02:40:08;97951.42;;;9.33;66.20
60246;BME280;46107;53.356;-1.524;2023-04-22T02:42:35;97952.15;;;9.60;66.68
60246;BME280;46107;53.356;-1.524;2023-04-22T02:45:03;97951.81;;;9.44;65.06
60246;BME280;46107;53.356;-1.524;2023-04-22T02:47:31;97950.09;;;9.68;65.40
60246;BME280;46107;53.356;-1.524;2023-04-22T02:49:59;97952.22;;;9.76;65.04
60246;BME280;46107;53.356;-1.524;2023-04-22T02:52:26;97948.58;;;9.68;65.16
60246;BME280;46107;53.356;-1.524;2023-04-22T02:54:59;97944.50;;;9.54;65.51
60246;BME280;46107;53.356;-1.524;2023-04-22T02:57:26;97941.30;;;9.13;66.43
60246;BME280;46107;53.356;-1.524;2023-04-22T02:59:58;97941.22;;;7.67;70.94
60246;BME280;46107;53.356;-1.524;2023-04-22T03:02:26;97935.08;;;8.03;71.14
60246;BME280;46107;53.356;-1.524;2023-04-22T03:04:59;97930.47;;;8.07;70.93
60246;BME280;46107;53.356;-1.524;2023-04-22T03:07:26;97922.98;;;8.71;68.41
60246;BME280;46107;53.356;-1.524;2023-04-22T03:09:58;97916.77;;;8.85;68.59
60246;BME280;46107;53.356;-1.524;2023-04-22T03:12:26;97913.18;;;7.89;70.44
60246;BME280;46107;53.356;-1.524;2023-04-22T03:14:59;97906.28;;;8.72;68.61
60246;BME280;46107;53.356;-1.524;2023-04-22T03:17:26;97899.51;;;8.32;70.49
60246;BME280;46107;53.356;-1.524;2023-04-22T03:19:59;97894.20;;;8.57;69.04
60246;BME280;46107;53.356;-1.524;2023-04-22T03:22:27;97887.09;;;8.74;68.80
60246;BME280;46107;53.356;-1.524;2023-04-22T03:24:55;97884.93;;;9.05;69.21
60246;BME280;46107;53.356;-1.524;2023-04-22T03:27:22;97879.49;;;8.27;68.92
60246;BME280;46107;53.356;-1.524;2023-04-22T03:29:49;97875.09;;;8.30;69.38
60246;BME280;46107;53.356;-1.524;2023-04-22T03:32:17;97868.14;;;8.38;67.33
60246;BME280;46107;53.356;-1.524;2023-04-22T03:34:44;97866.69;;;8.36;69.30
60246;BME280;46107;53.356;-1.524;2023-04-22T03:37:12;97865.94;;;8.55;69.24
60246;BME280;46107;53.356;-1.524;2023-04-22T03:39:39;97860.75;;;9.06;67.13
60246;BME280;46107;53.356;-1.524;2023-04-22T03:42:06;97860.49;;;9.16;67.47
60246;BME280;46107;53.356;-1.524;2023-04-22T03:44:34;97852.77;;;8.76;67.70
60246;BME280;46107;53.356;-1.524;2023-04-22T03:47:02;97852.76;;;9.22;65.92
60246;BME280;46107;53.356;-1.524;2023-04-22T03:49:30;97845.89;;;8.36;67.87
60246;BME280;46107;53.356;-1.524;2023-04-22T03:51:57;97844.08;;;8.51;69.21
60246;BME280;46107;53.356;-1.524;2023-04-22T03:54:25;97840.61;;;8.48;69.62
60246;BME280;46107;53.356;-1.524;2023-04-22T03:56:53;97837.04;;;9.16;66.99
60246;BME280;46107;53.356;-1.524;2023-04-22T03:59:21;97833.78;;;9.40;65.71
60246;BME280;46107;53.356;-1.524;2023-04-22T04:01:51;97833.55;;;10.11;64.54
60246;BME280;46107;53.356;-1.524;2023-04-22T04:04:18;97828.93;;;9.47;64.88
60246;BME280;46107;53.356;-1.524;2023-04-22T04:06:45;97823.92;;;8.15;69.66
60246;BME280;46107;53.356;-1.524;2023-04-22T04:09:13;97820.75;;;9.14;66.27
60246;BME280;46107;53.356;-1.524;2023-04-22T04:11:40;97818.92;;;8.51;67.24
60246;BME280;46107;53.356;-1.524;2023-04-22T04:14:08;97813.43;;;9.29;66.77
60246;BME280;46107;53.356;-1.524;2023-04-22T04:16:36;97810.84;;;9.20;66.18
60246;BME280;46107;53.356;-1.524;2023-04-22T04:19:04;97809.23;;;9.24;65.02
60246;BME280;46107;53.356;-1.524;2023-04-22T04:21:32;97807.99;;;8.31;66.55
60246;BME280;46107;53.356;-1.524;2023-04-22T04:24:00;97809.42;;;9.11;66.55
60246;BME280;46107;53.356;-1.524;2023-04-22T04:26:27;97803.94;;;8.72;65.17
60246;BME280;46107;53.356;-1.524;2023-04-22T04:28:55;97799.38;;;9.37;65.52
60246;BME280;46107;53.356;-1.524;2023-04-22T04:31:23;97796.20;;;9.73;63.07
60246;BME280;46107;53.356;-1.524;2023-04-22T04:33:50;97788.21;;;9.42;64.81
60246;BME280;46107;53.356;-1.524;2023-04-22T04:36:18;97783.77;;;9.57;64.56
60246;BME280;46107;53.356;-1.524;2023-04-22T04:38:45;97782.78;;;8.49;65.97
60246;BME280;46107;53.356;-1.524;2023-04-22T04:41:13;97783.96;;;8.56;67.18
60246;BME280;46107;53.356;-1.524;2023-04-22T04:43:40;97779.83;;;9.44;63.61
60246;BME280;46107;53.356;-1.524;2023-04-22T04:46:08;97775.17;;;9.23;65.79
60246;BME280;46107;53.356;-1.524;2023-04-22T04:48:36;97777.34;;;9.51;64.52
60246;BME280;46107;53.356;-1.524;2023-04-22T04:51:04;97774.33;;;9.40;65.16
60246;BME280;46107;53.356;-1.524;2023-04-22T04:53:32;97774.44;;;8.84;66.27
60246;BME280;46107;53.356;-1.524;2023-04-22T04:55:59;97773.78;;;9.47;65.17
60246;BME280;46107;53.356;-1.524;2023-04-22T04:58:27;97771.09;;;9.49;64.09
60246;BME280;46107;53.356;-1.524;2023-04-22T05:00:54;97776.22;;;9.11;64.64
60246;BME280;46107;53.356;-1.524;2023-04-22T05:03:22;97776.88;;;9.80;63.68
60246;BME280;46107;53.356;-1.524;2023-04-22T05:05:50;97768.57;;;9.95;62.44
60246;BME280;46107;53.356;-1.524;2023-04-22T05:08:18;97770.17;;;9.99;63.42
60246;BME280;46107;53.356;-1.524;2023-04-22T05:10:46;97770.12;;;9.50;63.24
60246;BME280;46107;53.356;-1.524;2023-04-22T05:13:14;97770.16;;;9.92;63.13
60246;BME280;46107;53.356;-1.524;2023-04-22T05:15:41;97771.00;;;9.73;62.92
60246;BME280;46107;53.356;-1.524;2023-04-22T05:18:08;97768.55;;;9.95;61.61
60246;BME280;46107;53.356;-1.524;2023-04-22T05:20:36;97767.64;;;9.99;62.22
60246;BME280;46107;53.356;-1.524;2023-04-22T05:23:03;97762.68;;;10.64;59.88
60246;BME280;46107;53.356;-1.524;2023-04-22T05:25:31;97762.27;;;10.08;61.31
60246;BME280;46107;53.356;-1.524;2023-04-22T05:27:58;97764.39;;;9.12;64.46
60246;BME280;46107;53.356;-1.524;2023-04-22T05:30:26;97760.80;;;9.31;64.15
60246;BME280;46107;53.356;-1.524;2023-04-22T05:32:59;97759.36;;;9.81;63.61
60246;BME280;46107;53.356;-1.524;2023-04-22T05:35:26;97759.90;;;9.53;62.75
60246;BME280;46107;53.356;-1.524;2023-04-22T05:37:58;97760.40;;;9.60;62.57
60246;BME280;46107;53.356;-1.524;2023-04-22T05:40:25;97766.22;;;9.12;65.27
60246;BME280;46107;53.356;-1.524;2023-04-22T05:42:55;97762.05;;;9.48;63.83
60246;BME280;46107;53.356;-1.524;2023-04-22T05:45:22;97765.67;;;9.03;64.37
60246;BME280;46107;53.356;-1.524;2023-04-22T05:47:49;97765.00;;;9.21;65.27
60246;BME280;46107;53.356;-1.524;2023-04-22T05:50:17;97768.12;;;9.36;64.80
60246;BME280;46107;53.356;-1.524;2023-04-22T05:52:45;97766.15;;;8.74;65.39
60246;BME280;46107;53.356;-1.524;2023-04-22T05:55:13;97770.74;;;9.00;64.29
60246;BME280;46107;53.356;-1.524;2023-04-22T05:57:40;97771.56;;;8.95;65.81
60246;BME280;46107;53.356;-1.524;2023-04-22T06:00:08;97772.90;;;9.61;65.00
60246;BME280;46107;53.356;-1.524;2023-04-22T06:02:37;97774.78;;;9.20;64.48
60246;BME280;46107;53.356;-1.524;2023-04-22T06:05:05;97775.34;;;8.43;67.83
60246;BME280;46107;53.356;-1.524;2023-04-22T06:07:32;97774.10;;;9.69;64.08
60246;BME280;46107;53.356;-1.524;2023-04-22T06:09:59;97771.19;;;9.69;63.25
60246;BME280;46107;53.356;-1.524;2023-04-22T06:12:27;97770.16;;;10.56;62.18
60246;BME280;46107;53.356;-1.524;2023-04-22T06:14:54;97766.30;;;10.05;62.06
60246;BME280;46107;53.356;-1.524;2023-04-22T06:17:22;97763.60;;;10.07;62.47
60246;BME280;46107;53.356;-1.524;2023-04-22T06:19:50;97757.51;;;10.40;61.34
60246;BME280;46107;53.356;-1.524;2023-04-22T06:22:17;97756.55;;;9.74;62.23
60246;BME280;46107;53.356;-1.524;2023-04-22T06:24:45;97756.53;;;9.12;65.30
60246;BME280;46107;53.356;-1.524;2023-04-22T06:27:13;97747.40;;;10.12;63.82
60246;BME280;46107;53.356;-1.524;2023-04-22T06:29:40;97743.11;;;9.63;62.89
60246;BME280;46107;53.356;-1.524;2023-04-22T06:32:08;97745.14;;;9.12;67.24
60246;BME280;46107;53.356;-1.524;2023-04-22T06:34:36;97740.84;;;9.67;63.91
60246;BME280;46107;53.356;-1.524;2023-04-22T06:37:02;97743.47;;;9.14;65.20
60246;BME280;46107;53.356;-1.524;2023-04-22T06:39:30;97735.28;;;9.60;63.91
60246;BME280;46107;53.356;-1.524;2023-04-22T06:41:58;97737.59;;;9.28;66.43
60246;BME280;46107;53.356;-1.524;2023-04-22T06:44:25;97734.10;;;9.57;64.44
60246;BME280;46107;53.356;-1.524;2023-04-22T06:46:54;97736.23;;;9.72;64.04
60246;BME280;46107;53.356;-1.524;2023-04-22T06:49:22;97738.36;;;9.87;63.87
60246;BME280;46107;53.356;-1.524;2023-04-22T06:51:50;97737.01;;;10.45;61.07
60246;BME280;46107;53.356;-1.524;2023-04-22T06:54:18;97739.72;;;9.60;63.07
60246;BME280;46107;53.356;-1.524;2023-04-22T06:56:45;97738.98;;;9.60;62.82
60246;BME280;46107;53.356;-1.524;2023-04-22T06:59:13;97740.87;;;9.59;62.67
60246;BME280;46107;53.356;-1.524;2023-04-22T07:01:40;97742.09;;;9.56;64.11
60246;BME280;46107;53.356;-1.524;2023-04-22T07:04:07;97736.65;;;10.07;62.18
60246;BME280;46107;53.356;-1.524;2023-04-22T07:06:34;97735.59;;;9.69;63.13
60246;BME280;46107;53.356;-1.524;2023-04-22T07:09:02;97736.22;;;9.62;63.61
60246;BME280;46107;53.356;-1.524;2023-04-22T07:11:30;97735.65;;;10.14;61.03
60246;BME280;46107;53.356;-1.524;2023-04-22T07:13:57;97738.63;;;9.73;62.73
60246;BME280;46107;53.356;-1.524;2023-04-22T07:16:26;97737.32;;;10.27;60.33
60246;BME280;46107;53.356;-1.524;2023-04-22T07:18:55;97743.46;;;9.24;64.06
60246;BME280;46107;53.356;-1.524;2023-04-22T07:21:22;97741.26;;;8.84;65.13
60246;BME280;46107;53.356;-1.524;2023-04-22T07:23:50;97740.58;;;9.00;64.92
60246;BME280;46107;53.356;-1.524;2023-04-22T07:26:18;97738.47;;;7.54;69.17
60246;BME280;46107;53.356;-1.524;2023-04-22T07:28:46;97734.44;;;8.29;68.89
60246;BME280;46107;53.356;-1.524;2023-04-22T07:31:13;97732.88;;;8.35;70.25
60246;BME280;46107;53.356;-1.524;2023-04-22T07:33:40;97727.27;;;7.60;73.13
60246;BME280;46107;53.356;-1.524;2023-04-22T07:36:08;97726.41;;;7.64;73.65
60246;BME280;46107;53.356;-1.524;2023-04-22T07:38:36;97724.37;;;7.34;73.23
60246;BME280;46107;53.356;-1.524;2023-04-22T07:41:03;97719.22;;;7.18;73.90
60246;BME280;46107;53.356;-1.524;2023-04-22T07:43:31;97720.08;;;6.94;76.37
60246;BME280;46107;53.356;-1.524;2023-04-22T07:45:58;97716.74;;;6.65;75.97
60246;BME280;46107;53.356;-1.524;2023-04-22T07:48:26;97716.47;;;7.49;75.62
60246;BME280;46107;53.356;-1.524;2023-04-22T07:50:54;97717.65;;;7.18;76.98
60246;BME280;46107;53.356;-1.524;2023-04-22T07:53:22;97716.89;;;7.82;73.26
60246;BME280;46107;53.356;-1.524;2023-04-22T07:55:49;97718.56;;;9.65;66.90
60246;BME280;46107;53.356;-1.524;2023-04-22T07:58:17;97725.99;;;8.79;67.14
60246;BME280;46107;53.356;-1.524;2023-04-22T08:00:44;97729.17;;;8.65;68.74
60246;BME280;46107;53.356;-1.524;2023-04-22T08:03:12;97732.10;;;8.64;68.14
60246;BME280;46107;53.356;-1.524;2023-04-22T08:05:40;97736.34;;;8.29;72.90
60246;BME280;46107;53.356;-1.524;2023-04-22T08:08:07;97737.54;;;8.40;71.82
60246;BME280;46107;53.356;-1.524;2023-04-22T08:10:35;97731.54;;;8.17;71.63
60246;BME280;46107;53.356;-1.524;2023-04-22T08:13:03;97729.62;;;8.72;67.38
60246;BME280;46107;53.356;-1.524;2023-04-22T08:15:31;97723.20;;;7.81;68.73
60246;BME280;46107;53.356;-1.524;2023-04-22T08:17:58;97731.66;;;7.16;74.13
60246;BME280;46107;53.356;-1.524;2023-04-22T08:20:25;97728.46;;;7.78;69.20
60246;BME280;46107;53.356;-1.524;2023-04-22T08:22:58;97728.46;;;8.24;72.60
60246;BME280;46107;53.356;-1.524;2023-04-22T08:25:26;97726.76;;;8.88;67.83
60246;BME280;46107;53.356;-1.524;2023-04-22T08:27:59;97730.45;;;8.61;72.34
60246;BME280;46107;53.356;-1.524;2023-04-22T08:30:27;97722.63;;;9.02;69.93
60246;BME280;46107;53.356;-1.524;2023-04-22T08:32:55;97721.49;;;9.68;68.31
60246;BME280;46107;53.356;-1.524;2023-04-22T08:35:23;97722.39;;;9.03;66.76
60246;BME280;46107;53.356;-1.524;2023-04-22T08:37:50;97719.36;;;9.13;63.87
60246;BME280;46107;53.356;-1.524;2023-04-22T08:40:17;97719.16;;;9.62;66.52
60246;BME280;46107;53.356;-1.524;2023-04-22T08:42:45;97715.91;;;10.30;62.29
60246;BME280;46107;53.356;-1.524;2023-04-22T08:45:13;97713.71;;;9.17;63.76
60246;BME280;46107;53.356;-1.524;2023-04-22T08:47:42;97701.12;;;9.94;62.48
60246;BME280;46107;53.356;-1.524;2023-04-22T08:50:10;97701.02;;;9.58;62.38
60246;BME280;46107;53.356;-1.524;2023-04-22T08:52:38;97704.73;;;9.06;66.18
60246;BME280;46107;53.356;-1.524;2023-04-22T08:55:06;97696.60;;;9.95;61.76
60246;BME280;46107;53.356;-1.524;2023-04-22T08:57:35;97696.37;;;9.82;63.52
60246;BME280;46107;53.356;-1.524;2023-04-22T09:00:06;97703.17;;;8.78;67.78
60246;BME280;46107;53.356;-1.524;2023-04-22T09:02:36;97701.57;;;10.40;62.82
60246;BME280;46107;53.356;-1.524;2023-04-22T09:05:06;97707.37;;;8.81;63.85
60246;BME280;46107;53.356;-1.524;2023-04-22T09:07:35;97703.22;;;10.23;59.66
60246;BME280;46107;53.356;-1.524;2023-04-22T09:10:04;97704.61;;;9.50;61.50
60246;BME280;46107;53.356;-1.524;2023-04-22T09:12:31;97702.87;;;9.80;60.98
60246;BME280;46107;53.356;-1.524;2023-04-22T09:14:59;97701.06;;;10.22;61.12
60246;BME280;46107;53.356;-1.524;2023-04-22T09:17:31;97702.68;;;10.13;60.09
60246;BME280;46107;53.356;-1.524;2023-04-22T09:20:00;97703.40;;;10.12;59.74
60246;BME280;46107;53.356;-1.524;2023-04-22T09:22:35;97705.87;;;11.22;56.26
60246;BME280;46107;53.356;-1.524;2023-04-22T09:25:04;97701.72;;;10.32;56.35
60246;BME280;46107;53.356;-1.524;2023-04-22T09:27:34;97697.62;;;11.36;55.13
60246;BME280;46107;53.356;-1.524;2023-04-22T09:30:08;97694.23;;;10.41;62.77
60246;BME280;46107;53.356;-1.524;2023-04-22T09:32:35;97692.18;;;10.53;56.90
60246;BME280;46107;53.356;-1.524;2023-04-22T09:35:03;97686.90;;;10.75;57.28
60246;BME280;46107;53.356;-1.524;2023-04-22T09:37:30;97685.86;;;10.87;58.29
60246;BME280;46107;53.356;-1.524;2023-04-22T09:39:58;97679.25;;;10.65;61.38
60246;BME280;46107;53.356;-1.524;2023-04-22T09:42:25;97672.96;;;10.91;58.63
60246;BME280;46107;53.356;-1.524;2023-04-22T09:44:54;97672.54;;;11.30;55.21
60246;BME280;46107;53.356;-1.524;2023-04-22T09:47:22;97682.77;;;10.68;54.93
60246;BME280;46107;53.356;-1.524;2023-04-22T09:49:50;97682.29;;;10.22;55.46
60246;BME280;46107;53.356;-1.524;2023-04-22T09:52:21;97685.98;;;10.66;54.53
60246;BME280;46107;53.356;-1.524;2023-04-22T09:54:49;97687.03;;;10.31;56.26
60246;BME280;46107;53.356;-1.524;2023-04-22T09:57:16;97683.08;;;9.61;56.15
60246;BME280;46107;53.356;-1.524;2023-04-22T09:59:44;97684.27;;;10.22;56.45
60246;BME280;46107;53.356;-1.524;2023-04-22T10:02:11;97686.62;;;11.21;52.31
60246;BME280;46107;53.356;-1.524;2023-04-22T10:04:39;97688.27;;;9.97;57.73
60246;BME280;46107;53.356;-1.524;2023-04-22T10:07:07;97689.55;;;10.19;55.14
60246;BME280;46107;53.356;-1.524;2023-04-22T10:09:35;97697.44;;;10.79;53.04
60246;BME280;46107;53.356;-1.524;2023-04-22T10:12:04;97693.18;;;10.88;52.26
60246;BME280;46107;53.356;-1.524;2023-04-22T10:14:32;97692.86;;;11.35;52.31
60246;BME280;46107;53.356;-1.524;2023-04-22T10:17:00;97688.82;;;10.88;51.88
60246;BME280;46107;53.356;-1.524;2023-04-22T10:19:29;97690.44;;;10.19;50.90
60246;BME280;46107;53.356;-1.524;2023-04-22T10:22:01;97688.73;;;11.19;50.65
60246;BME280;46107;53.356;-1.524;2023-04-22T10:24:35;97682.23;;;11.81;50.93
60246;BME280;46107;53.356;-1.524;2023-04-22T10:27:04;97682.50;;;10.35;50.23
60246;BME280;46107;53.356;-1.524;2023-04-22T10:29:36;97683.03;;;10.31;57.97
60246;BME280;46107;53.356;-1.524;2023-04-22T10:32:05;97678.98;;;11.15;50.57
60246;BME280;46107;53.356;-1.524;2023-04-22T10:34:54;97679.85;;;11.82;48.28
60246;BME280;46107;53.356;-1.524;2023-04-22T10:37:33;97681.52;;;11.35;51.35
60246;BME280;46107;53.356;-1.524;2023-04-22T10:40:10;97684.61;;;11.29;51.68
60246;BME280;46107;53.356;-1.524;2023-04-22T10:42:40;97684.52;;;11.47;48.09
60246;BME280;46107;53.356;-1.524;2023-04-22T10:45:12;97681.81;;;11.63;49.84
60246;BME280;46107;53.356;-1.524;2023-04-22T10:47:40;97682.07;;;10.91;53.22
60246;BME280;46107;53.356;-1.524;2023-04-22T10:50:19;97677.37;;;11.95;46.68
60246;BME280;46107;53.356;-1.524;2023-04-22T10:52:50;97680.10;;;12.21;48.12
60246;BME280;46107;53.356;-1.524;2023-04-22T10:55:19;97674.56;;;11.55;47.02
60246;BME280;46107;53.356;-1.524;2023-04-22T10:57:47;97677.82;;;11.80;48.00
60246;BME280;46107;53.356;-1.524;2023-04-22T11:00:21;97673.46;;;12.05;48.08
60246;BME280;46107;53.356;-1.524;2023-04-22T11:02:52;97676.92;;;12.02;46.82
60246;BME280;46107;53.356;-1.524;2023-04-22T11:05:22;97675.76;;;11.86;47.23
60246;BME280;46107;53.356;-1.524;2023-04-22T11:07:52;97679.55;;;11.37;49.17
60246;BME280;46107;53.356;-1.524;2023-04-22T11:10:37;97678.59;;;12.29;47.15
60246;BME280;46107;53.356;-1.524;2023-04-22T11:13:06;97687.21;;;12.63;45.80
60246;BME280;46107;53.356;-1.524;2023-04-22T11:15:35;97678.67;;;12.17;47.56
60246;BME280;46107;53.356;-1.524;2023-04-22T11:18:05;97682.31;;;12.84;45.26
60246;BME280;46107;53.356;-1.524;2023-04-22T11:20:34;97679.41;;;12.13;42.99
60246;BME280;46107;53.356;-1.524;2023-04-22T11:23:02;97682.66;;;12.39;48.38
60246;BME280;46107;53.356;-1.524;2023-04-22T11:25:30;97679.73;;;12.69;44.31
60246;BME280;46107;53.356;-1.524;2023-04-22T11:27:57;97676.40;;;12.57;41.55
60246;BME280;46107;53.356;-1.524;2023-04-22T11:30:27;97681.79;;;12.30;41.55
60246;BME280;46107;53.356;-1.524;2023-04-22T11:32:57;97675.94;;;11.84;42.85
60246;BME280;46107;53.356;-1.524;2023-04-22T11:35:26;97673.78;;;10.85;43.43
60246;BME280;46107;53.356;-1.524;2023-04-22T11:37:56;97673.75;;;11.73;42.41
60246;BME280;46107;53.356;-1.524;2023-04-22T11:40:26;97668.54;;;11.80;42.93
60246;BME280;46107;53.356;-1.524;2023-04-22T11:42:55;97672.37;;;11.14;43.29
60246;BME280;46107;53.356;-1.524;2023-04-22T11:45:23;97670.63;;;11.80;42.62
60246;BME280;46107;53.356;-1.524;2023-04-22T11:47:51;97673.12;;;11.10;43.04
60246;BME280;46107;53.356;-1.524;2023-04-22T11:50:22;97673.49;;;11.40;43.08
60246;BME280;46107;53.356;-1.524;2023-04-22T11:52:53;97674.01;;;11.14;45.67
60246;BME280;46107;53.356;-1.524;2023-04-22T11:55:23;97671.52;;;12.34;44.28
60246;BME280;46107;53.356;-1.524;2023-04-22T11:57:53;97673.11;;;12.38;40.68
60246;BME280;46107;53.356;-1.524;2023-04-22T12:00:24;97671.59;;;11.81;40.78
60246;BME280;46107;53.356;-1.524;2023-04-22T12:02:57;97671.88;;;12.08;41.80
60246;BME280;46107;53.356;-1.524;2023-04-22T12:05:36;97669.30;;;12.11;41.98
60246;BME280;46107;53.356;-1.524;2023-04-22T12:08:07;97670.37;;;11.79;43.43
60246;BME280;46107;53.356;-1.524;2023-04-22T12:10:39;97670.39;;;11.55;43.53
60246;BME280;46107;53.356;-1.524;2023-04-22T12:13:09;97669.40;;;11.49;40.67
60246;BME280;46107;53.356;-1.524;2023-04-22T12:15:39;97667.78;;;11.74;40.39
60246;BME280;46107;53.356;-1.524;2023-04-22T12:18:07;97667.26;;;12.39;39.73
60246;BME280;46107;53.356;-1.524;2023-04-22T12:20:35;97668.31;;;11.93;41.06
60246;BME280;46107;53.356;-1.524;2023-04-22T12:23:04;97664.91;;;12.83;37.05
60246;BME280;46107;53.356;-1.524;2023-04-22T12:25:32;97665.09;;;12.59;41.49
60246;BME280;46107;53.356;-1.524;2023-04-22T12:27:59;97667.76;;;12.74;37.80
60246;BME280;46107;53.356;-1.524;2023-04-22T12:30:27;97664.55;;;12.43;37.95
60246;BME280;46107;53.356;-1.524;2023-04-22T12:32:59;97665.59;;;12.55;37.45
60246;BME280;46107;53.356;-1.524;2023-04-22T12:35:27;97666.60;;;13.10;36.64
60246;BME280;46107;53.356;-1.524;2023-04-22T12:37:54;97665.40;;;12.50;40.30
60246;BME280;46107;53.356;-1.524;2023-04-22T12:40:22;97666.54;;;12.69;37.57
60246;BME280;46107;53.356;-1.524;2023-04-22T12:42:49;97665.38;;;12.77;36.58
60246;BME280;46107;53.356;-1.524;2023-04-22T12:45:16;97668.34;;;12.45;38.58
60246;BME280;46107;53.356;-1.524;2023-04-22T12:47:44;97662.55;;;13.20;38.53
60246;BME280;46107;53.356;-1.524;2023-04-22T12:50:12;97664.74;;;13.47;36.06
60246;BME280;46107;53.356;-1.524;2023-04-22T12:52:39;97663.39;;;13.49;35.28
60246;BME280;46107;53.356;-1.524;2023-04-22T12:55:07;97666.96;;;12.80;36.47
60246;BME280;46107;53.356;-1.524;2023-04-22T12:57:35;97666.69;;;12.65;36.01
60246;BME280;46107;53.356;-1.524;2023-04-22T13:00:03;97668.89;;;11.89;38.21
60246;BME280;46107;53.356;-1.524;2023-04-22T13:02:31;97669.92;;;13.06;36.02
60246;BME280;46107;53.356;-1.524;2023-04-22T13:04:58;97665.52;;;13.43;37.96